createdAt,value
2022-12-17T00:00:11.924Z,-7.48
2022-12-17T00:01:11.738Z,-7.50
2022-12-17T00:02:11.644Z,-7.61
2022-12-17T00:03:11.661Z,-7.41
2022-12-17T00:04:11.635Z,-7.57
2022-12-17T00:05:11.357Z,-7.57
2022-12-17T00:06:11.265Z,-7.55
2022-12-17T00:07:11.168Z,-7.61
2022-12-17T00:08:11.072Z,-7.43
2022-12-17T00:09:10.979Z,-7.50
2022-12-17T00:10:10.904Z,-7.46
2022-12-17T00:11:10.787Z,-7.50
2022-12-17T00:12:10.692Z,-7.48
2022-12-17T00:13:10.599Z,-7.50
2022-12-17T00:14:10.503Z,-7.50
2022-12-17T00:15:10.411Z,-7.51
2022-12-17T00:16:10.407Z,-7.44
2022-12-17T00:17:10.218Z,-7.57
2022-12-17T00:18:10.125Z,-7.57
2022-12-17T00:19:10.030Z,-7.62
2022-12-17T00:20:09.931Z,-7.58
2022-12-17T00:21:09.870Z,-7.62
2022-12-17T00:22:09.799Z,-7.54
2022-12-17T00:23:09.649Z,-7.55
2022-12-17T00:24:09.555Z,-7.51
2022-12-17T00:25:09.461Z,-7.57
2022-12-17T00:26:09.382Z,-7.58
2022-12-17T00:27:09.267Z,-7.50
2022-12-17T00:28:09.178Z,-7.57
2022-12-17T00:29:09.080Z,-7.58
2022-12-17T00:30:08.984Z,-7.61
2022-12-17T00:31:08.902Z,-7.57
2022-12-17T00:32:08.794Z,-7.59
2022-12-17T00:33:08.700Z,-7.67
2022-12-17T00:34:08.603Z,-7.62
2022-12-17T00:35:08.510Z,-7.67
2022-12-17T00:36:08.415Z,-7.54
2022-12-17T00:37:08.320Z,-7.55
2022-12-17T00:38:08.225Z,-7.54
2022-12-17T00:39:08.134Z,-7.41
2022-12-17T00:40:08.034Z,-7.50
2022-12-17T00:41:07.943Z,-7.43
2022-12-17T00:42:07.999Z,-7.41
2022-12-17T00:43:07.750Z,-7.43
2022-12-17T00:44:07.663Z,-7.37
2022-12-17T00:45:07.561Z,-7.46
2022-12-17T00:46:07.468Z,-7.48
2022-12-17T00:47:07.444Z,-7.47
2022-12-17T00:48:07.277Z,-7.54
2022-12-17T00:49:07.182Z,-7.54
2022-12-17T00:50:07.087Z,-7.51
2022-12-17T00:51:07.002Z,-7.55
2022-12-17T00:52:06.896Z,-7.57
2022-12-17T00:53:06.802Z,-7.43
2022-12-17T00:54:06.708Z,-7.50
2022-12-17T00:55:06.611Z,-7.43
2022-12-17T00:56:06.517Z,-7.54
2022-12-17T00:57:06.424Z,-7.55
2022-12-17T00:58:06.348Z,-7.58
2022-12-17T00:59:06.231Z,-7.48
2022-12-17T01:00:06.171Z,-7.59
2022-12-17T01:01:06.343Z,-7.65
2022-12-17T01:02:06.094Z,-7.61
2022-12-17T01:03:05.915Z,-7.55
2022-12-17T01:04:05.756Z,-7.68
2022-12-17T01:05:05.664Z,-7.64
2022-12-17T01:06:05.566Z,-7.72
2022-12-17T01:07:05.474Z,-7.72
2022-12-17T01:08:05.376Z,-7.72
2022-12-17T01:09:05.282Z,-7.65
2022-12-17T01:10:05.188Z,-7.67
2022-12-17T01:11:05.092Z,-7.67
2022-12-17T01:12:04.994Z,-7.69
2022-12-17T01:13:04.905Z,-7.72
2022-12-17T01:14:04.827Z,-7.68
2022-12-17T01:15:04.714Z,-7.67
2022-12-17T01:16:04.658Z,-7.75
2022-12-17T01:17:04.521Z,-7.82
2022-12-17T01:18:04.425Z,-7.67
2022-12-17T01:19:04.329Z,-7.68
2022-12-17T01:20:04.235Z,-7.62
2022-12-17T01:21:04.143Z,-7.73
2022-12-17T01:22:04.196Z,-7.65
2022-12-17T01:23:03.950Z,-7.73
2022-12-17T01:24:03.854Z,-7.67
2022-12-17T01:25:03.759Z,-7.85
2022-12-17T01:26:03.666Z,-7.73
2022-12-17T01:27:03.570Z,-7.83
2022-12-17T01:28:03.474Z,-7.83
2022-12-17T01:29:03.382Z,-7.80
2022-12-17T01:30:03.305Z,-7.82
2022-12-17T01:31:03.189Z,-7.82
2022-12-17T01:32:03.235Z,-7.72
2022-12-17T01:33:02.998Z,-7.69
2022-12-17T01:34:02.901Z,-7.78
2022-12-17T01:35:02.807Z,-7.65
2022-12-17T01:36:02.713Z,-7.73
2022-12-17T01:37:02.617Z,-7.72
2022-12-17T01:38:02.521Z,-7.67
2022-12-17T01:39:02.426Z,-7.75
2022-12-17T01:40:02.330Z,-7.75
2022-12-17T01:41:02.237Z,-7.68
2022-12-17T01:42:02.391Z,-7.55
2022-12-17T01:43:02.047Z,-7.64
2022-12-17T01:44:01.951Z,-7.59
2022-12-17T01:45:01.854Z,-7.67
2022-12-17T01:46:01.930Z,-7.67
2022-12-17T01:47:14.403Z,-7.59
2022-12-17T01:48:01.570Z,-7.73
2022-12-17T01:49:01.476Z,-7.57
2022-12-17T01:50:01.380Z,-7.62
2022-12-17T01:51:01.283Z,-7.69
2022-12-17T01:52:01.191Z,-7.75
2022-12-17T01:53:01.094Z,-7.54
2022-12-17T01:54:01.000Z,-7.65
2022-12-17T01:55:00.906Z,-7.59
2022-12-17T01:56:00.813Z,-7.67
2022-12-17T01:57:00.713Z,-7.59
2022-12-17T01:58:00.620Z,-7.67
2022-12-17T01:59:00.527Z,-7.67
2022-12-17T02:00:00.433Z,-7.54
2022-12-17T02:01:00.389Z,-7.64
2022-12-17T02:02:00.555Z,-7.76
2022-12-17T02:03:00.431Z,-7.65
2022-12-17T02:04:00.049Z,-7.68
2022-12-17T02:04:59.955Z,-7.78
2022-12-17T02:05:59.860Z,-7.80
2022-12-17T02:06:59.810Z,-7.72
2022-12-17T02:07:59.671Z,-7.73
2022-12-17T02:08:59.573Z,-7.73
2022-12-17T02:09:59.481Z,-7.73
2022-12-17T02:10:59.382Z,-7.72
2022-12-17T02:11:59.289Z,-7.69
2022-12-17T02:12:59.194Z,-7.78
2022-12-17T02:13:59.098Z,-7.80
2022-12-17T02:14:59.253Z,-7.80
2022-12-17T02:15:58.968Z,-7.82
2022-12-17T02:16:58.814Z,-7.86
2022-12-17T02:17:58.735Z,-7.80
2022-12-17T02:18:58.622Z,-7.78
2022-12-17T02:19:58.529Z,-7.75
2022-12-17T02:20:58.433Z,-7.73
2022-12-17T02:21:58.340Z,-7.86
2022-12-17T02:22:58.241Z,-7.82
2022-12-17T02:23:58.149Z,-7.80
2022-12-17T02:24:58.051Z,-7.85
2022-12-17T02:25:58.006Z,-7.85
2022-12-17T02:26:57.860Z,-7.72
2022-12-17T02:27:57.769Z,-7.86
2022-12-17T02:28:57.681Z,-7.85
2022-12-17T02:29:57.576Z,-7.85
2022-12-17T02:30:57.480Z,-7.82
2022-12-17T02:31:57.437Z,-7.88
2022-12-17T02:32:57.290Z,-7.80
2022-12-17T02:33:57.215Z,-7.85
2022-12-17T02:34:57.103Z,-7.85
2022-12-17T02:35:57.004Z,-7.80
2022-12-17T02:36:56.912Z,-7.83
2022-12-17T02:37:56.815Z,-7.88
2022-12-17T02:38:56.874Z,-7.90
2022-12-17T02:39:56.624Z,-7.83
2022-12-17T02:40:56.977Z,-7.82
2022-12-17T02:41:56.437Z,-7.73
2022-12-17T02:42:56.338Z,-7.80
2022-12-17T02:43:56.298Z,-7.67
2022-12-17T02:44:56.148Z,-7.64
2022-12-17T02:45:56.152Z,-7.68
2022-12-17T02:46:55.957Z,-7.68
2022-12-17T02:47:55.864Z,-7.61
2022-12-17T02:48:55.770Z,-7.72
2022-12-17T02:49:55.691Z,-7.73
2022-12-17T02:50:55.579Z,-7.80
2022-12-17T02:51:55.485Z,-7.78
2022-12-17T02:52:55.385Z,-7.86
2022-12-17T02:53:55.291Z,-7.79
2022-12-17T02:54:55.346Z,-7.94
2022-12-17T02:55:55.100Z,-7.78
2022-12-17T02:56:55.004Z,-7.86
2022-12-17T02:57:54.912Z,-7.83
2022-12-17T02:58:54.814Z,-7.69
2022-12-17T02:59:54.721Z,-7.83
2022-12-17T03:00:54.681Z,-7.79
2022-12-17T03:01:54.677Z,-7.72
2022-12-17T03:02:54.577Z,-7.73
2022-12-17T03:03:54.340Z,-7.79
2022-12-17T03:04:54.245Z,-7.76
2022-12-17T03:05:54.172Z,-7.76
2022-12-17T03:06:54.055Z,-7.76
2022-12-17T03:07:53.961Z,-7.90
2022-12-17T03:08:53.864Z,-7.88
2022-12-17T03:09:53.773Z,-7.82
2022-12-17T03:10:53.673Z,-7.82
2022-12-17T03:11:53.581Z,-7.76
2022-12-17T03:12:53.484Z,-7.83
2022-12-17T03:13:53.388Z,-7.76
2022-12-17T03:14:53.296Z,-7.80
2022-12-17T03:15:53.200Z,-7.83
2022-12-17T03:16:53.189Z,-7.83
2022-12-17T03:17:53.009Z,-7.86
2022-12-17T03:18:52.909Z,-7.91
2022-12-17T03:19:52.817Z,-7.85
2022-12-17T03:20:52.721Z,-7.91
2022-12-17T03:21:52.644Z,-7.93
2022-12-17T03:22:52.530Z,-7.86
2022-12-17T03:23:52.538Z,-7.94
2022-12-17T03:24:52.340Z,-7.91
2022-12-17T03:25:52.249Z,-7.93
2022-12-17T03:26:52.150Z,-7.86
2022-12-17T03:27:52.055Z,-7.83
2022-12-17T03:28:51.963Z,-7.88
2022-12-17T03:29:51.863Z,-7.79
2022-12-17T03:30:51.803Z,-7.90
2022-12-17T03:31:51.823Z,-7.83
2022-12-17T03:32:51.576Z,-7.83
2022-12-17T03:33:51.485Z,-7.80
2022-12-17T03:34:51.387Z,-7.82
2022-12-17T03:35:51.316Z,-7.83
2022-12-17T03:36:51.195Z,-7.73
2022-12-17T03:37:51.122Z,-7.79
2022-12-17T03:38:51.005Z,-7.76
2022-12-17T03:39:50.910Z,-7.85
2022-12-17T03:40:50.817Z,-7.91
2022-12-17T03:41:50.721Z,-7.88
2022-12-17T03:42:50.626Z,-7.88
2022-12-17T03:43:50.529Z,-7.93
2022-12-17T03:44:50.434Z,-7.85
2022-12-17T03:45:50.425Z,-7.88
2022-12-17T03:46:50.248Z,-7.86
2022-12-17T03:47:50.148Z,-7.82
2022-12-17T03:48:50.052Z,-7.82
2022-12-17T03:49:49.959Z,-7.88
2022-12-17T03:50:49.860Z,-7.78
2022-12-17T03:51:49.778Z,-7.85
2022-12-17T03:52:49.676Z,-7.78
2022-12-17T03:53:49.690Z,-7.85
2022-12-17T03:54:49.479Z,-7.83
2022-12-17T03:55:49.384Z,-7.85
2022-12-17T03:56:49.338Z,-7.85
2022-12-17T03:57:49.197Z,-7.88
2022-12-17T03:58:49.099Z,-7.91
2022-12-17T03:59:49.005Z,-7.80
2022-12-17T04:00:48.909Z,-7.88
2022-12-17T04:01:48.883Z,-7.91
2022-12-17T04:02:48.963Z,-7.86
2022-12-17T04:03:48.738Z,-7.91
2022-12-17T04:04:48.526Z,-7.85
2022-12-17T04:05:48.437Z,-7.90
2022-12-17T04:06:48.337Z,-7.91
2022-12-17T04:07:48.246Z,-7.93
2022-12-17T04:08:48.146Z,-7.91
2022-12-17T04:09:48.069Z,-7.94
2022-12-17T04:10:47.954Z,-7.86
2022-12-17T04:11:47.860Z,-7.93
2022-12-17T04:12:47.767Z,-7.94
2022-12-17T04:13:48.316Z,-7.93
2022-12-17T04:14:47.573Z,-7.93
2022-12-17T04:15:47.550Z,-8.01
2022-12-17T04:16:47.383Z,-7.91
2022-12-17T04:17:47.288Z,-8.04
2022-12-17T04:18:47.193Z,-7.93
2022-12-17T04:19:47.147Z,-7.90
2022-12-17T04:20:47.001Z,-7.90
2022-12-17T04:21:46.908Z,-7.83
2022-12-17T04:22:46.812Z,-7.93
2022-12-17T04:23:46.715Z,-7.90
2022-12-17T04:24:46.623Z,-7.83
2022-12-17T04:25:46.549Z,-7.88
2022-12-17T04:26:46.430Z,-7.85
2022-12-17T04:27:46.336Z,-7.75
2022-12-17T04:28:46.240Z,-7.86
2022-12-17T04:29:46.148Z,-7.86
2022-12-17T04:30:46.137Z,-7.90
2022-12-17T04:31:45.954Z,-7.93
2022-12-17T04:32:45.859Z,-8.01
2022-12-17T04:33:45.762Z,-7.88
2022-12-17T04:34:45.667Z,-7.91
2022-12-17T04:35:45.573Z,-7.88
2022-12-17T04:36:45.487Z,-7.96
2022-12-17T04:37:45.382Z,-7.90
2022-12-17T04:38:45.288Z,-7.85
2022-12-17T04:39:45.189Z,-7.96
2022-12-17T04:40:45.095Z,-8.01
2022-12-17T04:41:45.023Z,-7.93
2022-12-17T04:42:45.007Z,-7.90
2022-12-17T04:43:44.809Z,-8.01
2022-12-17T04:44:44.715Z,-7.98
2022-12-17T04:45:44.620Z,-7.94
2022-12-17T04:46:44.575Z,-8.01
2022-12-17T04:47:44.427Z,-7.98
2022-12-17T04:48:44.334Z,-8.01
2022-12-17T04:49:44.238Z,-7.98
2022-12-17T04:50:44.147Z,-8.05
2022-12-17T04:51:44.046Z,-7.97
2022-12-17T04:52:43.954Z,-7.97
2022-12-17T04:53:43.863Z,-7.88
2022-12-17T04:54:43.762Z,-8.05
2022-12-17T04:55:43.670Z,-8.02
2022-12-17T04:56:43.570Z,-7.93
2022-12-17T04:57:43.496Z,-7.90
2022-12-17T04:58:43.378Z,-7.98
2022-12-17T04:59:43.283Z,-7.96
2022-12-17T05:00:43.192Z,-7.94
2022-12-17T05:01:43.281Z,-8.01
2022-12-17T05:02:43.256Z,-7.88
2022-12-17T05:03:42.982Z,-7.90
2022-12-17T05:04:42.815Z,-7.96
2022-12-17T05:05:42.711Z,-7.91
2022-12-17T05:06:42.616Z,-7.88
2022-12-17T05:07:42.531Z,-7.91
2022-12-17T05:08:42.576Z,-7.83
2022-12-17T05:09:42.331Z,-7.86
2022-12-17T05:10:42.235Z,-8.02
2022-12-17T05:11:42.139Z,-7.98
2022-12-17T05:12:42.043Z,-7.93
2022-12-17T05:13:41.968Z,-7.97
2022-12-17T05:14:41.855Z,-7.88
2022-12-17T05:15:41.798Z,-8.02
2022-12-17T05:16:41.663Z,-8.02
2022-12-17T05:17:41.567Z,-8.02
2022-12-17T05:18:41.472Z,-7.96
2022-12-17T05:19:41.381Z,-7.93
2022-12-17T05:20:41.281Z,-8.01
2022-12-17T05:21:41.186Z,-7.93
2022-12-17T05:22:41.094Z,-8.04
2022-12-17T05:23:40.997Z,-7.88
2022-12-17T05:24:40.900Z,-7.93
2022-12-17T05:25:40.805Z,-7.93
2022-12-17T05:26:40.708Z,-7.93
2022-12-17T05:27:40.616Z,-7.93
2022-12-17T05:28:40.519Z,-7.90
2022-12-17T05:29:40.444Z,-7.96
2022-12-17T05:30:40.329Z,-8.04
2022-12-17T05:31:40.312Z,-7.97
2022-12-17T05:32:40.137Z,-7.98
2022-12-17T05:33:40.041Z,-7.91
2022-12-17T05:34:39.946Z,-7.86
2022-12-17T05:35:39.848Z,-7.88
2022-12-17T05:36:39.756Z,-7.88
2022-12-17T05:37:39.661Z,-7.86
2022-12-17T05:38:39.562Z,-7.88
2022-12-17T05:39:39.471Z,-7.91
2022-12-17T05:40:39.372Z,-7.86
2022-12-17T05:41:39.277Z,-7.91
2022-12-17T05:42:39.185Z,-7.93
2022-12-17T05:43:39.438Z,-7.91
2022-12-17T05:44:38.995Z,-7.85
2022-12-17T05:45:38.969Z,-7.91
2022-12-17T05:46:38.927Z,-7.85
2022-12-17T05:47:38.705Z,-7.91
2022-12-17T05:48:38.612Z,-7.96
2022-12-17T05:49:38.515Z,-8.02
2022-12-17T05:50:38.420Z,-7.97
2022-12-17T05:51:39.069Z,-7.91
2022-12-17T05:52:38.329Z,-8.01
2022-12-17T05:53:38.562Z,-7.88
2022-12-17T05:54:38.237Z,-7.94
2022-12-17T05:55:37.941Z,-7.96
2022-12-17T05:56:37.848Z,-7.85
2022-12-17T05:57:37.756Z,-7.85
2022-12-17T05:58:37.657Z,-7.94
2022-12-17T05:59:37.561Z,-7.93
2022-12-17T06:00:37.465Z,-7.88
2022-12-17T06:01:37.466Z,-7.86
2022-12-17T06:02:37.427Z,-7.90
2022-12-17T06:03:37.861Z,-7.85
2022-12-17T06:04:37.086Z,-7.91
2022-12-17T06:05:36.989Z,-7.83
2022-12-17T06:06:36.897Z,-7.96
2022-12-17T06:07:36.797Z,-8.02
2022-12-17T06:08:36.703Z,-8.10
2022-12-17T06:09:36.609Z,-8.02
2022-12-17T06:10:36.513Z,-8.10
2022-12-17T06:11:36.415Z,-8.10
2022-12-17T06:12:36.322Z,-8.04
2022-12-17T06:13:36.576Z,-7.98
2022-12-17T06:14:36.131Z,-8.04
2022-12-17T06:15:36.035Z,-8.04
2022-12-17T06:16:36.024Z,-8.10
2022-12-17T06:17:35.864Z,-8.05
2022-12-17T06:18:35.749Z,-8.01
2022-12-17T06:19:35.655Z,-8.05
2022-12-17T06:20:35.558Z,-8.02
2022-12-17T06:21:35.473Z,-8.07
2022-12-17T06:22:35.369Z,-8.10
2022-12-17T06:23:35.716Z,-8.08
2022-12-17T06:24:35.427Z,-8.08
2022-12-17T06:25:35.081Z,-8.13
2022-12-17T06:26:34.986Z,-8.13
2022-12-17T06:27:34.888Z,-8.13
2022-12-17T06:28:34.798Z,-8.07
2022-12-17T06:29:34.697Z,-8.12
2022-12-17T06:30:34.605Z,-8.07
2022-12-17T06:31:34.575Z,-8.10
2022-12-17T06:32:34.465Z,-8.04
2022-12-17T06:33:34.906Z,-8.16
2022-12-17T06:34:34.273Z,-8.18
2022-12-17T06:35:34.126Z,-8.15
2022-12-17T06:36:34.057Z,-8.16
2022-12-17T06:37:33.936Z,-8.16
2022-12-17T06:38:33.842Z,-8.16
2022-12-17T06:39:33.744Z,-8.19
2022-12-17T06:40:33.655Z,-8.30
2022-12-17T06:41:33.554Z,-8.30
2022-12-17T06:42:33.457Z,-8.26
2022-12-17T06:43:33.753Z,-8.34
2022-12-17T06:44:33.267Z,-8.25
2022-12-17T06:45:33.172Z,-8.41
2022-12-17T06:46:33.129Z,-8.40
2022-12-17T06:47:32.981Z,-8.20
2022-12-17T06:48:32.886Z,-8.22
2022-12-17T06:49:32.811Z,-8.25
2022-12-17T06:50:32.696Z,-8.26
2022-12-17T06:51:32.597Z,-8.26
2022-12-17T06:52:32.501Z,-8.25
2022-12-17T06:53:32.458Z,-8.37
2022-12-17T06:54:32.311Z,-8.22
2022-12-17T06:55:32.218Z,-8.23
2022-12-17T06:56:32.121Z,-8.25
2022-12-17T06:57:35.350Z,-8.26
2022-12-17T06:58:31.929Z,-8.22
2022-12-17T06:59:31.833Z,-8.13
2022-12-17T07:00:31.852Z,-8.23
2022-12-17T07:01:31.847Z,-8.13
2022-12-17T07:02:31.735Z,-8.18
2022-12-17T07:03:31.513Z,-8.20
2022-12-17T07:04:31.362Z,-8.18
2022-12-17T07:05:31.279Z,-8.18
2022-12-17T07:06:31.177Z,-8.20
2022-12-17T07:07:31.072Z,-8.22
2022-12-17T07:08:30.976Z,-8.28
2022-12-17T07:09:30.880Z,-8.36
2022-12-17T07:10:30.784Z,-8.36
2022-12-17T07:11:30.731Z,-8.40
2022-12-17T07:12:30.593Z,-8.43
2022-12-17T07:13:30.496Z,-8.43
2022-12-17T07:14:30.404Z,-8.52
2022-12-17T07:15:30.304Z,-8.51
2022-12-17T07:16:30.260Z,-8.52
2022-12-17T07:17:30.114Z,-8.49
2022-12-17T07:18:30.025Z,-8.46
2022-12-17T07:19:29.921Z,-8.54
2022-12-17T07:20:29.828Z,-8.55
2022-12-17T07:21:29.752Z,-8.54
2022-12-17T07:22:29.638Z,-8.61
2022-12-17T07:23:29.539Z,-8.61
2022-12-17T07:24:29.446Z,-8.61
2022-12-17T07:25:29.402Z,-8.64
2022-12-17T07:26:29.253Z,-8.62
2022-12-17T07:27:29.159Z,-8.64
2022-12-17T07:28:29.067Z,-8.75
2022-12-17T07:29:28.968Z,-8.78
2022-12-17T07:30:28.871Z,-8.78
2022-12-17T07:31:28.868Z,-8.69
2022-12-17T07:32:28.681Z,-8.78
2022-12-17T07:33:28.584Z,-8.73
2022-12-17T07:34:28.488Z,-8.82
2022-12-17T07:35:28.392Z,-8.76
2022-12-17T07:36:28.299Z,-8.79
2022-12-17T07:37:28.235Z,-8.79
2022-12-17T07:38:28.106Z,-8.75
2022-12-17T07:39:28.009Z,-8.73
2022-12-17T07:40:27.914Z,-8.80
2022-12-17T07:41:27.820Z,-8.78
2022-12-17T07:42:27.724Z,-8.80
2022-12-17T07:43:27.625Z,-8.82
2022-12-17T07:44:27.530Z,-8.87
2022-12-17T07:45:27.506Z,-8.76
2022-12-17T07:46:27.338Z,-8.80
2022-12-17T07:47:27.239Z,-8.91
2022-12-17T07:48:27.145Z,-8.93
2022-12-17T07:49:27.050Z,-8.82
2022-12-17T07:50:27.035Z,-8.83
2022-12-17T07:51:26.858Z,-8.83
2022-12-17T07:52:26.763Z,-8.94
2022-12-17T07:53:27.495Z,-8.83
2022-12-17T07:54:26.569Z,-8.88
2022-12-17T07:55:26.572Z,-8.90
2022-12-17T07:56:26.381Z,-8.90
2022-12-17T07:57:26.282Z,-8.83
2022-12-17T07:58:26.188Z,-8.82
2022-12-17T07:59:26.090Z,-8.83
2022-12-17T08:00:26.068Z,-8.83
2022-12-17T08:01:26.104Z,-8.78
2022-12-17T08:02:26.019Z,-8.83
2022-12-17T08:03:25.795Z,-8.86
2022-12-17T08:04:25.761Z,-8.86
2022-12-17T08:05:25.520Z,-8.90
2022-12-17T08:06:25.418Z,-8.94
2022-12-17T08:07:25.322Z,-8.93
2022-12-17T08:08:25.227Z,-8.97
2022-12-17T08:09:25.158Z,-8.96
2022-12-17T08:10:25.168Z,-8.91
2022-12-17T08:11:24.950Z,-8.90
2022-12-17T08:12:24.846Z,-8.94
2022-12-17T08:13:24.749Z,-8.91
2022-12-17T08:14:24.656Z,-8.90
2022-12-17T08:15:24.553Z,-8.96
2022-12-17T08:16:24.512Z,-8.90
2022-12-17T08:17:24.363Z,-8.91
2022-12-17T08:18:26.655Z,-8.87
2022-12-17T08:19:24.170Z,-8.86
2022-12-17T08:20:24.142Z,-8.82
2022-12-17T08:21:23.979Z,-8.86
2022-12-17T08:22:23.884Z,-8.83
2022-12-17T08:23:23.789Z,-8.78
2022-12-17T08:24:23.708Z,-8.83
2022-12-17T08:25:23.612Z,-8.70
2022-12-17T08:26:23.500Z,-8.68
2022-12-17T08:27:23.405Z,-8.64
2022-12-17T08:29:23.212Z,-8.41
2022-12-17T08:30:23.192Z,-8.44
2022-12-17T08:31:23.134Z,-8.31
2022-12-17T08:32:22.925Z,-8.26
2022-12-17T08:33:22.829Z,-8.37
2022-12-17T08:34:22.735Z,-8.26
2022-12-17T08:35:22.637Z,-8.34
2022-12-17T08:36:22.544Z,-8.33
2022-12-17T08:37:22.447Z,-8.36
2022-12-17T08:38:22.352Z,-8.38
2022-12-17T08:39:22.256Z,-8.34
2022-12-17T08:40:22.269Z,-8.40
2022-12-17T08:41:22.093Z,-8.40
2022-12-17T08:42:21.968Z,-8.46
2022-12-17T08:43:21.890Z,-8.34
2022-12-17T08:44:21.776Z,-8.37
2022-12-17T08:45:21.683Z,-8.22
2022-12-17T08:46:21.644Z,-8.28
2022-12-17T08:47:21.491Z,-8.23
2022-12-17T08:48:21.397Z,-8.16
2022-12-17T08:49:21.300Z,-8.04
2022-12-17T08:50:21.204Z,-8.07
2022-12-17T08:51:21.112Z,-8.15
2022-12-17T08:52:21.018Z,-8.15
2022-12-17T08:53:20.917Z,-8.13
2022-12-17T08:54:20.823Z,-8.16
2022-12-17T08:55:20.729Z,-8.08
2022-12-17T08:56:20.632Z,-7.94
2022-12-17T08:57:31.585Z,-7.86
2022-12-17T08:58:20.439Z,-7.59
2022-12-17T08:59:20.347Z,-7.34
2022-12-17T09:00:20.248Z,-7.02
2022-12-17T09:01:20.295Z,-6.86
2022-12-17T09:02:20.381Z,-6.70
2022-12-17T09:03:20.050Z,-6.76
2022-12-17T09:04:19.870Z,-6.83
2022-12-17T09:05:19.777Z,-6.83
2022-12-17T09:06:19.680Z,-6.84
2022-12-17T09:07:19.589Z,-6.86
2022-12-17T09:08:19.491Z,-6.89
2022-12-17T09:09:19.398Z,-6.91
2022-12-17T09:10:19.298Z,-7.05
2022-12-17T09:11:19.217Z,-7.16
2022-12-17T09:12:19.113Z,-7.07
2022-12-17T09:13:19.040Z,-7.02
2022-12-17T09:14:18.921Z,-6.99
2022-12-17T09:15:18.830Z,-7.09
2022-12-17T09:16:18.772Z,-7.18
2022-12-17T09:17:18.639Z,-7.22
2022-12-17T09:18:18.546Z,-7.19
2022-12-17T09:19:18.452Z,-7.05
2022-12-17T09:20:18.362Z,-7.11
2022-12-17T09:21:18.263Z,-6.97
2022-12-17T09:22:18.167Z,-6.97
2022-12-17T09:23:18.075Z,-6.93
2022-12-17T09:24:17.979Z,-6.89
2022-12-17T09:25:17.937Z,-6.87
2022-12-17T09:26:17.790Z,-6.75
2022-12-17T09:27:17.696Z,-6.66
2022-12-17T09:28:17.602Z,-6.53
2022-12-17T09:29:17.527Z,-6.25
2022-12-17T09:30:17.412Z,-6.18
2022-12-17T09:31:17.385Z,-6.08
2022-12-17T09:32:17.226Z,-5.93
2022-12-17T09:33:17.134Z,-5.84
2022-12-17T09:34:17.042Z,-5.84
2022-12-17T09:35:16.947Z,-5.83
2022-12-17T09:36:16.850Z,-5.81
2022-12-17T09:37:16.758Z,-5.73
2022-12-17T09:38:16.662Z,-5.65
2022-12-17T09:39:16.571Z,-5.72
2022-12-17T09:40:16.475Z,-5.65
2022-12-17T09:41:16.385Z,-5.51
2022-12-17T09:42:16.295Z,-5.48
2022-12-17T09:43:16.197Z,-5.19
2022-12-17T09:44:16.104Z,-5.04
2022-12-17T09:45:16.156Z,-5.02
2022-12-17T09:46:15.949Z,-4.85
2022-12-17T09:47:15.823Z,-4.63
2022-12-17T09:48:15.737Z,-4.42
2022-12-17T09:49:15.641Z,-4.19
2022-12-17T09:50:15.544Z,-4.15
2022-12-17T09:51:15.455Z,-4.24
2022-12-17T09:52:15.361Z,-4.03
2022-12-17T09:53:15.274Z,-3.88
2022-12-17T09:54:15.176Z,-3.70
2022-12-17T09:55:15.087Z,-3.67
2022-12-17T09:56:14.993Z,-3.63
2022-12-17T09:57:14.902Z,-3.68
2022-12-17T09:58:14.810Z,-3.70
2022-12-17T09:59:14.719Z,-3.58
2022-12-17T10:00:14.629Z,-3.46
2022-12-17T10:01:14.683Z,-3.30
2022-12-17T10:02:14.649Z,-2.95
2022-12-17T10:03:14.394Z,-2.65
2022-12-17T10:04:14.265Z,-2.41
2022-12-17T10:05:14.174Z,-2.38
2022-12-17T10:06:19.242Z,-2.49
2022-12-17T10:07:13.994Z,-2.71
2022-12-17T10:08:13.900Z,-3.25
2022-12-17T10:09:13.808Z,-3.46
2022-12-17T10:10:13.715Z,-3.70
2022-12-17T10:11:13.626Z,-3.82
2022-12-17T10:12:13.539Z,-3.86
2022-12-17T10:13:13.442Z,-3.63
2022-12-17T10:14:13.358Z,-3.42
2022-12-17T10:15:13.263Z,-3.07
2022-12-17T10:16:13.264Z,-2.73
2022-12-17T10:17:13.104Z,-2.65
2022-12-17T10:18:13.242Z,-2.07
2022-12-17T10:19:12.900Z,-1.35
2022-12-17T10:20:12.820Z,-0.68
2022-12-17T10:21:12.723Z,-0.01
2022-12-17T10:22:12.632Z,0.56
2022-12-17T10:23:12.547Z,1.08
2022-12-17T10:24:18.325Z,1.05
2022-12-17T10:25:12.373Z,1.11
2022-12-17T10:26:12.283Z,0.98
2022-12-17T10:27:12.195Z,0.03
2022-12-17T10:28:12.108Z,-0.53
2022-12-17T10:29:12.024Z,-0.82
2022-12-17T10:30:11.934Z,-0.93
2022-12-17T10:31:11.991Z,-1.34
2022-12-17T10:32:11.762Z,-1.77
2022-12-17T10:33:11.700Z,-2.13
2022-12-17T10:34:11.586Z,-2.16
2022-12-17T10:35:11.504Z,-2.32
2022-12-17T10:36:11.413Z,-2.10
2022-12-17T10:37:11.329Z,-1.91
2022-12-17T10:38:11.239Z,-1.78
2022-12-17T10:39:11.157Z,-1.84
2022-12-17T10:40:11.064Z,-1.74
2022-12-17T10:41:10.979Z,-1.70
2022-12-17T10:42:10.890Z,-1.66
2022-12-17T10:43:10.855Z,-1.73
2022-12-17T10:44:10.715Z,-1.38
2022-12-17T10:45:10.632Z,-0.95
2022-12-17T10:46:10.568Z,-0.65
2022-12-17T10:47:10.457Z,-0.28
2022-12-17T10:48:10.369Z,-0.01
2022-12-17T10:49:11.697Z,0.04
2022-12-17T10:50:10.196Z,0.09
2022-12-17T10:51:10.114Z,-0.23
2022-12-17T10:52:10.021Z,-0.35
2022-12-17T10:53:09.937Z,-0.38
2022-12-17T10:54:09.849Z,-0.51
2022-12-17T10:55:09.764Z,-0.83
2022-12-17T10:56:09.677Z,-0.87
2022-12-17T10:57:09.589Z,-1.06
2022-12-17T10:58:09.503Z,-1.32
2022-12-17T10:59:09.416Z,-1.30
2022-12-17T11:00:09.331Z,-1.52
2022-12-17T11:01:09.287Z,-1.89
2022-12-17T11:02:09.272Z,-2.01
2022-12-17T11:03:09.152Z,-2.23
2022-12-17T11:04:08.982Z,-2.45
2022-12-17T11:05:08.909Z,-2.65
2022-12-17T11:06:08.807Z,-2.77
2022-12-17T11:07:08.716Z,-2.88
2022-12-17T11:08:08.628Z,-2.86
2022-12-17T11:09:08.540Z,-3.13
2022-12-17T11:10:09.891Z,-3.20
2022-12-17T11:11:08.365Z,-3.13
2022-12-17T11:12:08.271Z,-3.06
2022-12-17T11:13:08.184Z,-2.96
2022-12-17T11:14:08.097Z,-2.88
2022-12-17T11:15:08.007Z,-2.88
2022-12-17T11:16:07.987Z,-2.83
2022-12-17T11:17:07.828Z,-2.77
2022-12-17T11:18:11.306Z,-2.80
2022-12-17T11:19:07.703Z,-3.03
2022-12-17T11:20:07.559Z,-3.21
2022-12-17T11:21:07.492Z,-3.35
2022-12-17T11:22:07.378Z,-3.27
2022-12-17T11:23:07.301Z,-3.35
2022-12-17T11:24:07.203Z,-3.40
2022-12-17T11:25:07.114Z,-3.46
2022-12-17T11:26:07.022Z,-3.57
2022-12-17T11:27:06.931Z,-3.53
2022-12-17T11:28:06.841Z,-3.50
2022-12-17T11:29:06.754Z,-3.53
2022-12-17T11:30:06.663Z,-3.58
2022-12-17T11:31:06.647Z,-3.61
2022-12-17T11:32:06.481Z,-3.78
2022-12-17T11:33:06.390Z,-3.88
2022-12-17T11:34:06.297Z,-3.97
2022-12-17T11:35:06.209Z,-3.93
2022-12-17T11:36:06.119Z,-3.92
2022-12-17T11:37:06.043Z,-3.96
2022-12-17T11:38:05.933Z,-3.97
2022-12-17T11:39:05.845Z,-3.90
2022-12-17T11:40:05.754Z,-3.96
2022-12-17T11:41:05.662Z,-4.01
2022-12-17T11:42:11.076Z,-4.01
2022-12-17T11:43:05.480Z,-4.08
2022-12-17T11:44:05.391Z,-4.00
2022-12-17T11:45:05.299Z,-4.11
2022-12-17T11:46:05.259Z,-4.11
2022-12-17T11:47:05.114Z,-4.11
2022-12-17T11:48:05.020Z,-4.17
2022-12-17T11:49:04.937Z,-4.04
2022-12-17T11:50:04.839Z,-4.07
2022-12-17T11:51:04.749Z,-4.06
2022-12-17T11:52:04.655Z,-4.00
2022-12-17T11:53:04.587Z,-3.90
2022-12-17T11:54:04.475Z,-4.10
2022-12-17T11:55:04.380Z,-3.97
2022-12-17T11:56:04.289Z,-4.18
2022-12-17T11:57:04.200Z,-4.00
2022-12-17T11:58:04.104Z,-4.10
2022-12-17T11:59:04.021Z,-4.25
2022-12-17T12:00:04.634Z,-4.26
2022-12-17T12:01:03.831Z,-4.26
2022-12-17T12:02:03.804Z,-4.14
2022-12-17T12:03:03.844Z,-4.15
2022-12-17T12:04:03.572Z,-4.24
2022-12-17T12:05:03.461Z,-4.24
2022-12-17T12:06:03.377Z,-4.25
2022-12-17T12:07:03.276Z,-4.33
2022-12-17T12:08:03.184Z,-4.25
2022-12-17T12:09:03.116Z,-4.29
2022-12-17T12:10:03.097Z,-4.29
2022-12-17T12:11:02.907Z,-4.26
2022-12-17T12:12:02.814Z,-4.33
2022-12-17T12:13:02.722Z,-4.31
2022-12-17T12:14:02.630Z,-4.31
2022-12-17T12:15:02.540Z,-4.28
2022-12-17T12:16:02.788Z,-4.28
2022-12-17T12:17:02.354Z,-4.24
2022-12-17T12:18:02.260Z,-4.25
2022-12-17T12:19:02.171Z,-4.24
2022-12-17T12:20:02.075Z,-4.24
2022-12-17T12:21:01.986Z,-4.24
2022-12-17T12:22:01.892Z,-4.19
2022-12-17T12:23:01.800Z,-4.11
2022-12-17T12:24:01.759Z,-4.14
2022-12-17T12:25:01.639Z,-4.14
2022-12-17T12:26:01.523Z,-4.11
2022-12-17T12:27:01.431Z,-4.15
2022-12-17T12:28:01.362Z,-4.01
2022-12-17T12:29:01.246Z,-3.96
2022-12-17T12:30:01.153Z,-3.98
2022-12-17T12:31:01.060Z,-3.92
2022-12-17T12:32:01.056Z,-3.98
2022-12-17T12:33:04.231Z,-3.93
2022-12-17T12:34:00.784Z,-3.96
2022-12-17T12:35:00.697Z,-3.97
2022-12-17T12:36:00.605Z,-3.96
2022-12-17T12:37:00.511Z,-3.97
2022-12-17T12:38:00.418Z,-3.92
2022-12-17T12:39:00.327Z,-3.90
2022-12-17T12:40:00.234Z,-3.89
2022-12-17T12:41:00.163Z,-3.89
2022-12-17T12:42:00.053Z,-3.96
2022-12-17T12:42:59.970Z,-3.98
2022-12-17T12:43:59.866Z,-4.03
2022-12-17T12:44:59.771Z,-4.06
2022-12-17T12:45:59.781Z,-4.04
2022-12-17T12:46:59.591Z,-3.96
2022-12-17T12:47:59.501Z,-3.93
2022-12-17T12:48:59.407Z,-3.90
2022-12-17T12:49:59.314Z,-4.07
2022-12-17T12:50:59.221Z,-4.00
2022-12-17T12:51:59.143Z,-3.98